Time;durP1;ratioP1;P1;durP2;ratioP2;P2;SDS_P1;SDS_P2;PMS_P1;PMS_P2;Temp;Humidity;BMP_temperature;BMP_pressure;BME280_temperature;BME280_humidity;BME280_pressure;Samples;Min_cycle;Max_cycle;Signal;HPM_P1;HPM_P2
2022/04/21 00:00:16;;;;;;;1.73;1.10;;;21.90;35.90;;;;;;5156719;27;20026;-62
2022/04/21 00:02:41;;;;;;;1.23;0.80;;;21.90;35.90;;;;;;5156992;27;20507;-62
2022/04/21 00:05:08;;;;;;;0.70;0.70;;;21.90;36.00;;;;;;5121531;27;20023;-62
2022/04/21 00:07:34;;;;;;;1.00;0.75;;;21.80;36.00;;;;;;5156903;27;20055;-62
2022/04/21 00:10:00;;;;;;;1.35;0.70;;;21.90;36.60;;;;;;5138581;27;20023;-62
2022/04/21 00:12:26;;;;;;;1.05;0.80;;;21.80;35.90;;;;;;5156785;27;20019;-62
2022/04/21 00:14:52;;;;;;;1.23;1.08;;;21.80;36.00;;;;;;5157305;27;20034;-62
2022/04/21 00:17:19;;;;;;;0.73;0.68;;;21.90;36.00;;;;;;5157032;27;20473;-61
2022/04/21 00:19:45;;;;;;;1.17;0.75;;;21.80;36.00;;;;;;5157518;27;20025;-62
2022/04/21 00:24:56;;;;;;;0.80;0.70;;;21.80;36.10;;;;;;5157023;27;20037;-62
2022/04/21 00:27:22;;;;;;;1.42;0.90;;;21.80;36.10;;;;;;5157113;27;20014;-62
2022/04/21 00:29:48;;;;;;;1.15;0.82;;;21.80;36.10;;;;;;5157520;27;20087;-62
2022/04/21 00:32:13;;;;;;;0.80;0.80;;;21.80;36.70;;;;;;5123487;27;20079;-62
2022/04/21 00:34:39;;;;;;;1.17;0.93;;;21.80;36.10;;;;;;5141453;27;20018;-62
2022/04/21 00:37:05;;;;;;;2.53;0.70;;;21.80;36.10;;;;;;5159861;27;20014;-62
2022/04/21 00:39:32;;;;;;;0.95;0.82;;;21.80;36.20;;;;;;5159508;27;20472;-62
2022/04/21 00:42:01;;;;;;;2.65;1.08;;;21.80;36.20;;;;;;5156764;27;20162;-62
2022/04/21 00:44:27;;;;;;;1.40;1.00;;;21.80;36.20;;;;;;5156992;27;20045;-62
2022/04/21 00:46:54;;;;;;;1.92;0.68;;;21.80;36.20;;;;;;5157488;27;20010;-62
2022/04/21 00:49:21;;;;;;;0.82;0.80;;;21.70;36.20;;;;;;5139186;27;20384;-63
2022/04/21 00:51:47;;;;;;;1.13;0.88;;;21.70;36.20;;;;;;5157580;27;20087;-62
2022/04/21 00:54:13;;;;;;;1.15;0.80;;;21.70;36.20;;;;;;5156497;27;20011;-62
2022/04/21 00:56:39;;;;;;;1.83;0.73;;;21.70;36.20;;;;;;5156322;27;20022;-62
2022/04/21 00:59:09;;;;;;;0.95;0.70;;;21.70;36.20;;;;;;5159529;27;20007;-62
2022/04/21 01:04:19;;;;;;;1.40;0.80;;;21.70;36.30;;;;;;5160259;27;20074;-62
2022/04/21 01:06:47;;;;;;;0.70;0.70;;;21.70;36.30;;;;;;5159489;27;20075;-62
2022/04/21 01:09:13;;;;;;;0.85;0.75;;;21.70;36.40;;;;;;5158465;27;20018;-62
2022/04/21 01:11:39;;;;;;;1.60;0.80;;;21.70;36.40;;;;;;5137358;27;20015;-62
2022/04/21 01:14:06;;;;;;;0.80;0.80;;;21.70;36.40;;;;;;5155919;27;20465;-62
2022/04/21 01:16:32;;;;;;;1.00;0.85;;;21.70;36.40;;;;;;5155758;27;20574;-62
2022/04/21 01:18:59;;;;;;;1.55;0.80;;;21.70;36.40;;;;;;5155884;27;20152;-62
2022/04/21 01:21:24;;;;;;;1.02;0.85;;;21.70;36.40;;;;;;5156108;27;20064;-61
2022/04/21 01:23:51;;;;;;;1.20;0.85;;;21.70;36.40;;;;;;5137799;27;20058;-62
2022/04/21 01:26:17;;;;;;;0.93;0.65;;;21.70;36.40;;;;;;5155882;27;20033;-62
2022/04/21 01:28:44;;;;;;;0.73;0.70;;;21.60;36.40;;;;;;5136986;27;20489;-62
2022/04/21 01:31:10;;;;;;;1.70;0.75;;;21.60;36.40;;;;;;5155493;27;20012;-62
2022/04/21 01:33:36;;;;;;;1.15;0.80;;;21.70;36.40;;;;;;5156464;27;20013;-62
2022/04/21 01:36:01;;;;;;;1.08;0.80;;;21.70;36.40;;;;;;5154550;27;20026;-62
2022/04/21 01:41:12;;;;;;;1.15;0.90;;;21.60;36.40;;;;;;5155956;27;20095;-62
2022/04/21 01:43:38;;;;;;;0.95;0.80;;;21.60;36.40;;;;;;5137205;27;20114;-62
2022/04/21 01:46:04;;;;;;;0.77;0.60;;;21.60;36.50;;;;;;5136553;27;20029;-62
2022/04/21 01:48:31;;;;;;;1.50;0.98;;;21.60;36.50;;;;;;5154866;27;20015;-63
2022/04/21 01:50:56;;;;;;;0.60;0.55;;;21.60;36.50;;;;;;5154795;27;20102;-62
2022/04/21 01:53:23;;;;;;;1.83;0.95;;;21.60;36.50;;;;;;5154799;27;20037;-60
2022/04/21 01:55:49;;;;;;;1.08;0.75;;;21.60;36.50;;;;;;5136664;27;20026;-60
2022/04/21 01:58:16;;;;;;;1.52;0.70;;;21.60;36.50;;;;;;5137158;27;20026;-60
2022/04/21 02:00:42;;;;;;;1.45;0.90;;;21.60;36.60;;;;;;5155101;27;20121;-60
2022/04/21 02:03:08;;;;;;;1.90;0.93;;;21.50;36.50;;;;;;5154947;27;20131;-60
2022/04/21 02:05:34;;;;;;;2.35;1.00;;;21.60;36.60;;;;;;5154925;27;20350;-60
2022/04/21 02:08:03;;;;;;;1.02;0.80;;;21.50;36.60;;;;;;5155013;27;20093;-60
2022/04/21 02:10:30;;;;;;;1.00;0.73;;;21.60;36.60;;;;;;5154959;27;20082;-60
2022/04/21 02:12:56;;;;;;;1.52;0.95;;;21.50;36.60;;;;;;5137567;27;20015;-60
2022/04/21 02:15:23;;;;;;;1.10;0.80;;;21.50;36.50;;;;;;5154911;27;20050;-60
2022/04/21 02:17:49;;;;;;;1.15;0.80;;;21.50;36.60;;;;;;5155033;27;20018;-60
2022/04/21 02:20:15;;;;;;;1.15;0.90;;;21.50;36.60;;;;;;5153238;27;20461;-60
2022/04/21 02:22:42;;;;;;;1.10;0.90;;;21.50;36.60;;;;;;5135642;27;20115;-60
2022/04/21 02:25:09;;;;;;;0.77;0.70;;;21.50;36.60;;;;;;5154724;27;20022;-60
2022/04/21 02:27:36;;;;;;;2.03;0.88;;;21.50;36.60;;;;;;5154703;27;20018;-60
2022/04/21 02:30:12;;;;;;;1.20;0.75;;;21.50;36.60;;;;;;5153208;27;20014;-60
2022/04/21 02:32:38;;;;;;;1.13;0.80;;;21.50;36.60;;;;;;5137774;27;20046;-60
2022/04/21 02:35:04;;;;;;;1.00;0.90;;;21.50;36.60;;;;;;5136015;27;20452;-60
2022/04/21 02:37:41;;;;;;;1.58;0.95;;;21.40;36.70;;;;;;5154514;27;20362;-60
2022/04/21 02:40:07;;;;;;;1.08;0.85;;;21.40;36.60;;;;;;5153089;27;20019;-60
2022/04/21 02:42:33;;;;;;;1.83;0.90;;;21.40;36.60;;;;;;5135579;27;20037;-60
2022/04/21 02:44:59;;;;;;;1.17;0.80;;;21.40;36.60;;;;;;5154291;27;20089;-60
2022/04/21 02:47:25;;;;;;;0.90;0.63;;;21.50;36.70;;;;;;5135709;27;20429;-60
2022/04/21 02:49:51;;;;;;;1.13;0.70;;;21.40;37.20;;;;;;5154434;27;20056;-60
2022/04/21 02:52:17;;;;;;;1.02;0.90;;;21.40;36.80;;;;;;5154160;27;20011;-59
2022/04/21 02:57:28;;;;;;;1.10;0.75;;;21.40;36.70;;;;;;5155471;27;20129;-60
2022/04/21 02:59:55;;;;;;;1.00;0.80;;;21.40;36.70;;;;;;5154836;27;20030;-60
2022/04/21 03:02:21;;;;;;;0.70;0.70;;;21.40;36.80;;;;;;5154633;27;20018;-60
2022/04/21 03:04:48;;;;;;;0.75;0.68;;;21.40;36.80;;;;;;5154321;27;20128;-60
2022/04/21 03:07:14;;;;;;;1.08;0.95;;;21.40;36.80;;;;;;5136058;27;20019;-61
2022/04/21 03:09:40;;;;;;;0.63;0.63;;;21.40;36.80;;;;;;5136370;27;20147;-60
2022/04/21 03:12:07;;;;;;;1.50;0.95;;;21.40;36.80;;;;;;5154293;27;20011;-62
2022/04/21 03:14:36;;;;;;;1.15;0.90;;;21.40;36.80;;;;;;5154053;27;20500;-62
2022/04/21 03:17:07;;;;;;;1.33;0.77;;;21.30;36.80;;;;;;5154396;27;20014;-62
2022/04/21 03:19:33;;;;;;;1.30;0.75;;;21.40;36.90;;;;;;5154045;27;20060;-62
2022/04/21 03:24:43;;;;;;;0.75;0.75;;;21.30;36.80;;;;;;5154162;27;20037;-62
2022/04/21 03:27:10;;;;;;;1.33;0.88;;;21.40;36.90;;;;;;5135900;27;20023;-62
2022/04/21 03:29:37;;;;;;;1.02;0.90;;;21.30;36.90;;;;;;5135419;27;20014;-62
2022/04/21 03:32:10;;;;;;;1.67;1.00;;;21.30;36.90;;;;;;5153798;27;20472;-62
2022/04/21 03:34:42;;;;;;;1.27;0.98;;;21.40;37.50;;;;;;5153769;27;20465;-62
2022/04/21 03:37:09;;;;;;;2.33;0.93;;;21.30;36.90;;;;;;5139089;27;20033;-61
2022/04/21 03:39:36;;;;;;;1.38;0.77;;;21.40;36.90;;;;;;5157774;27;20038;-62
2022/04/21 03:42:05;;;;;;;1.23;0.90;;;21.30;36.90;;;;;;5157718;27;20014;-62
2022/04/21 03:44:32;;;;;;;0.85;0.70;;;21.30;36.90;;;;;;5157389;27;20034;-62
2022/04/21 03:47:00;;;;;;;0.75;0.70;;;21.30;37.00;;;;;;5157336;27;20011;-61
2022/04/21 03:49:29;;;;;;;1.00;0.90;;;21.30;37.00;;;;;;5157311;27;20015;-62
2022/04/21 03:51:58;;;;;;;0.95;0.80;;;21.30;37.00;;;;;;5157622;27;20074;-62
2022/04/21 03:54:24;;;;;;;1.13;0.80;;;21.30;37.00;;;;;;5157503;27;20007;-62
2022/04/21 03:56:50;;;;;;;1.85;0.95;;;21.30;37.00;;;;;;5157526;27;20422;-61
2022/04/21 03:59:17;;;;;;;0.90;0.70;;;21.30;37.00;;;;;;5157433;27;20037;-61
2022/04/21 04:01:43;;;;;;;1.10;0.90;;;21.30;37.00;;;;;;5156997;27;20011;-61
2022/04/21 04:04:09;;;;;;;1.27;0.98;;;21.30;37.00;;;;;;5156904;27;20022;-62
2022/04/21 04:12:04;;;;;;;1.58;1.00;;;21.30;37.10;;;;;;5141520;27;20022;-63
2022/04/21 04:14:31;;;;;;;0.90;0.82;;;21.30;37.10;;;;;;5139336;27;20027;-62
2022/04/21 04:16:56;;;;;;;1.17;0.88;;;21.20;37.00;;;;;;5121588;27;20007;-62
2022/04/21 04:19:22;;;;;;;1.08;0.98;;;21.20;37.10;;;;;;5138239;27;20015;-62
2022/04/21 04:21:48;;;;;;;1.13;0.90;;;21.20;37.10;;;;;;5138129;27;20050;-62
2022/04/21 04:24:14;;;;;;;1.13;0.90;;;21.20;37.10;;;;;;5156540;27;20045;-62
2022/04/21 04:26:40;;;;;;;1.73;1.15;;;21.20;37.10;;;;;;5156542;27;20046;-62
2022/04/21 04:29:06;;;;;;;0.95;0.80;;;21.20;37.10;;;;;;5156842;27;20019;-61
2022/04/21 04:31:33;;;;;;;4.10;1.08;;;21.20;37.10;;;;;;5121148;27;20015;-62
2022/04/21 04:33:59;;;;;;;0.90;0.85;;;21.20;37.10;;;;;;5156790;27;20029;-62
2022/04/21 04:36:25;;;;;;;1.80;1.20;;;21.20;37.10;;;;;;5156618;27;20010;-62
2022/04/21 04:38:51;;;;;;;1.35;0.90;;;21.20;37.10;;;;;;5157031;27;20015;-62
2022/04/21 04:44:01;;;;;;;1.83;1.30;;;21.20;37.10;;;;;;5156862;27;20456;-62
2022/04/21 04:46:40;;;;;;;1.00;0.90;;;21.20;37.10;;;;;;5156706;27;20480;-62
2022/04/21 04:49:09;;;;;;;2.15;1.00;;;21.20;37.10;;;;;;5157041;27;20034;-62
2022/04/21 04:51:41;;;;;;;2.03;0.95;;;21.20;37.10;;;;;;5156794;27;20026;-62
2022/04/21 04:54:07;;;;;;;2.08;1.10;;;21.20;37.20;;;;;;5156693;27;20023;-62
2022/04/21 04:56:34;;;;;;;1.00;0.85;;;21.20;37.20;;;;;;5156393;27;20026;-62
2022/04/21 04:59:00;;;;;;;1.25;0.95;;;21.20;37.20;;;;;;5155075;27;20021;-62
2022/04/21 05:01:31;;;;;;;1.27;1.00;;;21.20;37.20;;;;;;5137619;27;20023;-62
2022/04/21 05:04:04;;;;;;;2.45;1.17;;;21.20;37.20;;;;;;5155908;27;20026;-62
2022/04/21 05:06:34;;;;;;;2.25;1.08;;;21.20;37.20;;;;;;5156340;27;20007;-62
2022/04/21 05:08:59;;;;;;;0.80;0.75;;;21.20;37.20;;;;;;5137518;27;20041;-62
2022/04/21 05:11:26;;;;;;;6.70;1.20;;;21.20;37.20;;;;;;5156165;27;20609;-62
2022/04/21 05:13:52;;;;;;;1.75;0.95;;;21.20;37.20;;;;;;5156552;27;20019;-61
2022/04/21 05:16:18;;;;;;;3.60;1.35;;;21.20;37.20;;;;;;5156934;27;20011;-62
2022/04/21 05:18:43;;;;;;;1.23;1.00;;;21.20;37.20;;;;;;5140046;27;20023;-63
2022/04/21 05:21:10;;;;;;;1.70;1.15;;;21.20;37.20;;;;;;5138871;27;20053;-62
2022/04/21 05:23:37;;;;;;;3.53;0.95;;;21.10;37.20;;;;;;5156285;27;20023;-62
2022/04/21 05:26:03;;;;;;;0.82;0.70;;;21.10;37.20;;;;;;5137811;27;20019;-62
2022/04/21 05:28:30;;;;;;;1.70;1.05;;;21.10;37.80;;;;;;5155425;27;20024;-62
2022/04/21 05:31:01;;;;;;;2.13;1.23;;;21.20;37.30;;;;;;5155495;27;20019;-61
2022/04/21 05:33:27;;;;;;;0.93;0.90;;;21.10;37.20;;;;;;5155148;27;20039;-62
2022/04/21 05:35:54;;;;;;;1.73;1.13;;;21.10;37.20;;;;;;5155004;27;20022;-62
2022/04/21 05:38:21;;;;;;;3.97;1.20;;;21.10;37.30;;;;;;5155146;27;20049;-62
2022/04/21 05:40:48;;;;;;;2.28;1.10;;;21.10;37.30;;;;;;5155363;27;20015;-64
2022/04/21 05:43:17;;;;;;;2.40;1.00;;;21.10;37.30;;;;;;5155345;27;20045;-62
2022/04/21 05:45:43;;;;;;;1.33;1.00;;;21.10;37.30;;;;;;5154876;27;20461;-62
2022/04/21 05:48:09;;;;;;;1.20;0.90;;;21.20;37.30;;;;;;5136605;27;20026;-62
2022/04/21 05:50:35;;;;;;;1.73;1.10;;;21.30;37.00;;;;;;5136130;27;20025;-62
2022/04/21 05:53:03;;;;;;;0.95;0.90;;;21.50;36.80;;;;;;5154885;27;20484;-61
2022/04/21 05:55:29;;;;;;;1.52;1.10;;;21.50;36.60;;;;;;5155164;27;20036;-63
2022/04/21 05:57:55;;;;;;;1.00;0.90;;;21.60;36.60;;;;;;5118789;27;20027;-62
2022/04/21 06:00:22;;;;;;;1.00;0.90;;;21.70;36.50;;;;;;5153507;27;20019;-64
2022/04/21 06:02:47;;;;;;;1.63;1.20;;;21.70;36.90;;;;;;5153094;27;20153;-62
2022/04/21 06:05:13;;;;;;;1.40;1.00;;;21.80;36.30;;;;;;5154644;27;20454;-63
2022/04/21 06:07:39;;;;;;;1.42;0.90;;;21.90;36.20;;;;;;5154636;27;20010;-63
2022/04/21 06:10:06;;;;;;;2.13;0.80;;;21.90;36.10;;;;;;5154448;27;20018;-63
2022/04/21 06:12:33;;;;;;;1.38;0.82;;;22.00;35.90;;;;;;5153934;27;20495;-62
2022/04/21 06:14:59;;;;;;;2.42;1.33;;;22.00;35.80;;;;;;5154528;27;20034;-63
2022/04/21 06:17:25;;;;;;;3.83;1.00;;;22.10;35.90;;;;;;5156317;27;20026;-63
2022/04/21 06:20:00;;;;;;;1.40;1.10;;;22.00;35.80;;;;;;5154058;27;20015;-63
2022/04/21 06:22:25;;;;;;;2.95;1.55;;;22.10;35.70;;;;;;5152931;27;20086;-63
2022/04/21 06:24:51;;;;;;;26.92;3.10;;;22.10;36.00;;;;;;5135013;27;20022;-60
2022/04/21 06:27:17;;;;;;;13.85;2.85;;;22.00;38.10;;;;;;5134713;27;20345;-60
2022/04/21 06:29:44;;;;;;;13.65;3.33;;;21.90;38.60;;;;;;5152259;27;20022;-62
2022/04/21 06:32:11;;;;;;;18.25;3.20;;;21.90;38.80;;;;;;5154947;27;20011;-60
2022/04/21 06:34:38;;;;;;;14.13;3.53;;;21.90;38.20;;;;;;5135777;27;20015;-57
2022/04/21 06:37:04;;;;;;;8.32;3.58;;;21.50;38.00;;;;;;5117470;27;20019;-59
2022/04/21 06:39:30;;;;;;;12.23;3.40;;;21.50;38.30;;;;;;5117901;27;20050;-59
2022/04/21 06:41:57;;;;;;;11.43;3.28;;;21.40;38.30;;;;;;5135079;27;20544;-58
2022/04/21 06:49:51;;;;;;;8.15;3.17;;;21.60;38.20;;;;;;5153969;27;20030;-60
2022/04/21 06:52:17;;;;;;;7.13;3.17;;;21.70;37.70;;;;;;5135097;27;20015;-60
2022/04/21 06:54:42;;;;;;;8.60;3.10;;;21.60;37.10;;;;;;5152092;27;20098;-60
2022/04/21 06:57:08;;;;;;;10.77;3.40;;;21.60;37.50;;;;;;5134352;27;20398;-61
2022/04/21 06:59:34;;;;;;;6.63;3.10;;;21.70;37.60;;;;;;5153119;27;20022;-59
2022/04/21 07:01:59;;;;;;;6.22;3.38;;;21.80;37.30;;;;;;5133862;27;20090;-58
2022/04/21 07:04:27;;;;;;;10.07;3.03;;;21.80;37.20;;;;;;5133953;27;20031;-58
2022/04/21 07:06:53;;;;;;;8.68;3.28;;;21.90;37.20;;;;;;5153062;27;20015;-60
2022/04/21 07:09:19;;;;;;;15.93;3.47;;;21.90;36.90;;;;;;5152548;27;20083;-60
2022/04/21 07:11:47;;;;;;;14.23;3.63;;;21.70;36.90;;;;;;5137708;27;20048;-60
2022/04/21 07:14:13;;;;;;;9.63;3.63;;;21.70;37.10;;;;;;5138103;27;20015;-59
2022/04/21 07:16:38;;;;;;;16.85;4.00;;;21.80;36.20;;;;;;5156918;27;20019;-59
2022/04/21 07:19:04;;;;;;;17.58;3.42;;;21.60;35.80;;;;;;5157001;27;20011;-57
2022/04/21 07:21:30;;;;;;;11.52;3.15;;;21.50;36.20;;;;;;5156831;27;20106;-60
2022/04/21 07:23:56;;;;;;;19.27;4.75;;;21.50;36.40;;;;;;5137809;27;20019;-60
2022/04/21 07:26:22;;;;;;;12.00;3.42;;;21.60;36.00;;;;;;5156592;27;20007;-59
2022/04/21 07:28:48;;;;;;;10.10;3.70;;;21.40;36.10;;;;;;5156805;27;20483;-60
2022/04/21 07:31:13;;;;;;;7.60;3.42;;;21.50;35.90;;;;;;5157234;27;20060;-59
2022/04/21 07:33:39;;;;;;;6.05;3.05;;;21.40;35.70;;;;;;5157313;27;20026;-61
2022/04/21 07:36:05;;;;;;;11.60;2.97;;;21.40;35.90;;;;;;5120842;27;20096;-59
2022/04/21 07:38:34;;;;;;;6.60;2.90;;;21.50;35.60;;;;;;5137988;27;20098;-60
2022/04/21 07:41:00;;;;;;;11.35;2.95;;;21.60;35.40;;;;;;5156270;27;20064;-60
2022/04/21 07:43:26;;;;;;;10.48;3.13;;;21.70;35.20;;;;;;5156686;27;20071;-60
2022/04/21 07:45:52;;;;;;;5.32;2.58;;;21.50;35.30;;;;;;5155109;27;20062;-60
2022/04/21 07:48:18;;;;;;;6.35;3.05;;;21.60;35.20;;;;;;5156600;27;20132;-60
2022/04/21 07:50:43;;;;;;;4.97;2.47;;;21.70;35.20;;;;;;5138271;27;20015;-60
2022/04/21 07:53:15;;;;;;;6.10;2.83;;;21.70;35.20;;;;;;5120904;27;20390;-61
2022/04/21 07:55:45;;;;;;;10.65;2.88;;;21.70;34.60;;;;;;5139095;27;20068;-58
2022/04/21 07:58:11;;;;;;;8.48;2.85;;;21.30;34.90;;;;;;5156692;27;20019;-60
2022/04/21 08:00:38;;;;;;;13.93;3.00;;;20.90;35.10;;;;;;5156215;27;20031;-60
2022/04/21 08:03:05;;;;;;;17.35;3.17;;;20.90;35.70;;;;;;5156218;27;20023;-60
2022/04/21 08:05:31;;;;;;;16.08;3.75;;;20.90;35.50;;;;;;5138221;27;20026;-58
2022/04/21 08:07:57;;;;;;;19.98;4.82;;;21.00;35.50;;;;;;5158272;27;20479;-58
2022/04/21 08:10:24;;;;;;;21.30;3.85;;;21.20;36.20;;;;;;5158183;27;20011;-59
2022/04/21 08:12:51;;;;;;;19.20;3.38;;;21.30;35.60;;;;;;5156908;27;20102;-58
2022/04/21 08:15:25;;;;;;;12.15;2.75;;;21.30;35.50;;;;;;5155108;27;20087;-58
2022/04/21 08:17:51;;;;;;;15.93;3.20;;;21.30;35.10;;;;;;5155285;27;20018;-59
2022/04/21 08:20:17;;;;;;;14.48;3.03;;;21.40;35.20;;;;;;5137003;27;20425;-59
2022/04/21 08:22:44;;;;;;;14.75;2.78;;;21.40;35.00;;;;;;5155397;27;20046;-59
2022/04/21 08:33:22;;;;;;;8.82;2.30;;;21.40;34.40;;;;;;5155874;27;20026;-58
2022/04/21 08:35:49;;;;;;;8.15;2.65;;;21.40;34.30;;;;;;5153959;27;20461;-59
2022/04/21 08:38:15;;;;;;;15.32;2.58;;;21.20;34.40;;;;;;5136804;27;20019;-59
2022/04/21 08:40:51;;;;;;;8.20;2.42;;;21.00;34.50;;;;;;5154663;27;20022;-58
2022/04/21 08:43:17;;;;;;;6.78;2.30;;;21.20;34.40;;;;;;5153522;27;20113;-59
2022/04/21 08:45:43;;;;;;;6.13;2.63;;;21.10;34.50;;;;;;5155332;27;20477;-58
2022/04/21 08:48:11;;;;;;;9.20;2.83;;;21.10;34.50;;;;;;5137008;27;20031;-59
2022/04/21 08:50:38;;;;;;;7.85;2.58;;;21.00;34.40;;;;;;5155834;27;20011;-59
2022/04/21 08:53:07;;;;;;;5.38;1.92;;;21.00;34.30;;;;;;5156950;27;20015;-58
2022/04/21 08:55:33;;;;;;;8.00;2.13;;;21.10;34.30;;;;;;5155732;27;20063;-58
2022/04/21 08:58:00;;;;;;;9.50;2.25;;;21.10;34.40;;;;;;5136999;27;20019;-60
2022/04/21 09:00:26;;;;;;;4.10;1.90;;;20.90;34.40;;;;;;5154794;27;20111;-60
2022/04/21 09:02:53;;;;;;;5.07;2.28;;;20.80;34.50;;;;;;5154923;27;20038;-59
2022/04/21 09:05:20;;;;;;;5.45;2.00;;;20.90;34.40;;;;;;5155042;27;20033;-60
2022/04/21 09:07:50;;;;;;;8.70;2.05;;;20.90;34.40;;;;;;5136207;27;20015;-60
2022/04/21 09:10:17;;;;;;;10.70;2.40;;;21.00;34.30;;;;;;5154004;27;20067;-58
2022/04/21 09:12:55;;;;;;;14.30;2.47;;;21.00;35.30;;;;;;5154859;27;20197;-60
2022/04/21 09:15:23;;;;;;;19.60;3.15;;;20.70;35.90;;;;;;5154578;27;20019;-60
2022/04/21 09:17:51;;;;;;;10.05;2.22;;;20.80;36.60;;;;;;5153823;27;20039;-59
2022/04/21 09:20:18;;;;;;;12.85;2.45;;;21.00;36.60;;;;;;5154305;27;20015;-59
2022/04/21 09:22:54;;;;;;;7.18;2.33;;;21.10;34.90;;;;;;5153101;27;20040;-59
2022/04/21 09:25:31;;;;;;;8.32;2.30;;;21.10;35.90;;;;;;5135724;27;20006;-57
2022/04/21 09:27:57;;;;;;;8.55;2.13;;;21.30;34.70;;;;;;5135921;27;20070;-58
2022/04/21 09:30:29;;;;;;;7.13;2.30;;;21.30;35.50;;;;;;5153228;27;20044;-57
2022/04/21 09:32:56;;;;;;;5.72;2.42;;;21.20;35.50;;;;;;5116689;27;20465;-58
2022/04/21 09:35:37;;;;;;;8.55;2.00;;;21.40;35.40;;;;;;5153486;27;20024;-58
2022/04/21 09:38:04;;;;;;;5.40;1.92;;;21.60;35.70;;;;;;5153501;27;20076;-57
2022/04/21 09:40:32;;;;;;;5.18;1.85;;;21.60;35.70;;;;;;5154009;27;20126;-58
2022/04/21 09:43:01;;;;;;;4.88;2.10;;;21.60;35.80;;;;;;5136300;27;20027;-59
2022/04/21 09:48:23;;;;;;;7.65;2.75;;;21.40;35.50;;;;;;5155132;27;20733;-59
2022/04/21 09:50:56;;;;;;;5.57;2.60;;;21.40;35.10;;;;;;5154884;27;20094;-59
2022/04/21 09:53:25;;;;;;;5.07;2.53;;;21.10;35.30;;;;;;5154412;27;20022;-58
2022/04/21 09:56:07;;;;;;;14.55;2.72;;;21.10;36.30;;;;;;5153869;27;20533;-59
2022/04/21 09:58:37;;;;;;;32.63;4.63;;;21.10;35.90;;;;;;5154893;27;20094;-58
2022/04/21 10:01:03;;;;;;;17.85;3.15;;;21.10;35.70;;;;;;5154756;27;20034;-58
2022/04/21 10:03:33;;;;;;;27.08;4.32;;;21.20;35.60;;;;;;5153381;27;20034;-58
2022/04/21 10:05:59;;;;;;;26.60;3.85;;;21.20;35.30;;;;;;5119953;27;20014;-58
2022/04/21 10:08:25;;;;;;;25.98;3.35;;;21.20;35.10;;;;;;5135701;27;20492;-58
2022/04/21 10:10:51;;;;;;;14.32;3.28;;;21.20;34.70;;;;;;5154504;27;20033;-58
2022/04/21 10:13:17;;;;;;;13.23;3.00;;;21.30;34.50;;;;;;5136450;27;20018;-58
2022/04/21 10:15:43;;;;;;;10.18;2.65;;;21.30;34.40;;;;;;5135818;27;20023;-57
2022/04/21 10:18:11;;;;;;;6.30;2.13;;;21.30;34.20;;;;;;5154199;27;20060;-59
2022/04/21 10:20:37;;;;;;;12.43;2.58;;;21.30;34.10;;;;;;5101712;27;20453;-59
2022/04/21 10:23:04;;;;;;;10.25;2.30;;;21.30;34.20;;;;;;5153981;27;20489;-58
2022/04/21 10:25:39;;;;;;;9.23;2.45;;;21.30;34.10;;;;;;5101531;27;20110;-58
2022/04/21 10:28:37;;;;;;;5.32;1.98;;;21.30;34.20;;;;;;5136834;27;20007;-58
2022/04/21 10:31:29;;;;;;;8.40;2.10;;;21.30;34.10;;;;;;5153972;27;20027;-58
2022/04/21 10:34:00;;;;;;;5.18;2.22;;;21.40;34.10;;;;;;5154392;27;20070;-58
2022/04/21 10:36:46;;;;;;;8.85;2.25;;;21.40;33.90;;;;;;5154910;27;20124;-59
2022/04/21 10:39:12;;;;;;;5.32;2.15;;;21.50;33.80;;;;;;5154439;27;20391;-59
2022/04/21 10:41:39;;;;;;;8.15;1.85;;;21.40;33.80;;;;;;5153926;27;20023;-58
2022/04/21 10:44:11;;;;;;;3.92;2.17;;;21.40;33.70;;;;;;5154993;27;20030;-59
2022/04/21 10:46:39;;;;;;;10.60;2.10;;;21.50;33.50;;;;;;5123007;27;20026;-58
2022/04/21 10:49:05;;;;;;;7.68;2.15;;;21.50;33.60;;;;;;5156382;27;20087;-59
2022/04/21 10:57:12;;;;;;;6.53;1.77;;;21.40;33.10;;;;;;5155854;27;20015;-58
2022/04/21 10:57:17;;;;;;;3.78;1.63;;;21.30;33.00;;;;;;5156258;27;20017;-63
2022/04/21 10:59:50;;;;;;;6.05;2.20;;;21.40;33.00;;;;;;5120082;27;20029;-57
2022/04/21 11:02:17;;;;;;;11.50;2.00;;;21.30;32.70;;;;;;5156036;27;20093;-58
2022/04/21 11:04:43;;;;;;;7.28;1.80;;;21.30;32.80;;;;;;5136941;27;20110;-57
2022/04/21 11:07:13;;;;;;;4.90;1.77;;;21.30;32.70;;;;;;5137370;27;20083;-60
2022/04/21 11:09:44;;;;;;;9.30;1.63;;;21.30;32.60;;;;;;5154727;27;20019;-58
2022/04/21 11:12:12;;;;;;;4.10;1.85;;;21.30;32.60;;;;;;5155977;27;20042;-58
2022/04/21 11:14:39;;;;;;;4.75;1.42;;;21.30;32.50;;;;;;5137057;27;20117;-58
2022/04/21 11:17:05;;;;;;;5.65;1.60;;;21.40;32.50;;;;;;5155919;27;20083;-58
2022/04/21 11:19:44;;;;;;;6.22;1.90;;;21.30;32.30;;;;;;5137746;27;20023;-58
2022/04/21 11:22:13;;;;;;;6.45;1.83;;;21.40;31.90;;;;;;5155661;27;20034;-58
2022/04/21 11:25:03;;;;;;;4.13;1.60;;;21.30;31.60;;;;;;5155600;27;20041;-57
2022/04/21 11:27:30;;;;;;;3.88;1.63;;;21.30;31.70;;;;;;5136516;27;20011;-59
2022/04/21 11:30:00;;;;;;;6.75;1.70;;;21.30;31.40;;;;;;5155289;27;20011;-59
2022/04/21 11:32:26;;;;;;;6.05;1.70;;;21.30;31.30;;;;;;5155424;27;20036;-58
2022/04/21 11:34:58;;;;;;;6.72;1.98;;;21.20;30.90;;;;;;5155583;27;20018;-59
2022/04/21 11:37:43;;;;;;;7.05;2.03;;;21.20;31.00;;;;;;5155191;27;20022;-59
2022/04/21 11:40:34;;;;;;;4.97;1.67;;;21.20;30.90;;;;;;5155489;27;20066;-58
2022/04/21 11:43:02;;;;;;;7.75;2.58;;;21.20;31.00;;;;;;5123495;27;20030;-59
2022/04/21 11:45:30;;;;;;;14.20;2.35;;;21.10;32.00;;;;;;5156467;27;20063;-58
2022/04/21 11:47:56;;;;;;;14.25;2.45;;;21.30;32.60;;;;;;5155996;27;20512;-58
2022/04/21 11:50:29;;;;;;;14.23;2.40;;;21.50;32.60;;;;;;5155876;27;20015;-60
2022/04/21 11:52:56;;;;;;;15.80;2.65;;;21.60;32.50;;;;;;5155912;27;20066;-59
2022/04/21 11:55:27;;;;;;;10.50;1.90;;;21.80;32.70;;;;;;5156872;27;20007;-58
2022/04/21 11:57:53;;;;;;;17.77;2.90;;;22.00;32.40;;;;;;5157056;27;20011;-58
2022/04/21 12:06:27;;;;;;;7.70;2.28;;;22.30;32.40;;;;;;5138991;27;20143;-59
2022/04/21 12:08:38;;;;;;;11.52;2.10;;;22.60;32.10;;;;;;5156969;27;20022;-58
2022/04/21 12:11:09;;;;;;;8.43;2.38;;;22.60;31.60;;;;;;5156877;27;20033;-59
2022/04/21 12:13:35;;;;;;;11.25;2.50;;;22.70;31.30;;;;;;5156580;27;20059;-59
2022/04/21 12:16:00;;;;;;;9.98;2.30;;;22.80;31.00;;;;;;5138186;27;20102;-58
2022/04/21 12:18:26;;;;;;;7.65;1.60;;;22.90;30.90;;;;;;5137851;27;20095;-58
2022/04/21 12:20:55;;;;;;;8.30;2.13;;;23.00;31.00;;;;;;5155996;27;20050;-57
2022/04/21 12:23:25;;;;;;;7.80;1.95;;;23.00;31.50;;;;;;5137109;27;20101;-60
2022/04/21 12:25:51;;;;;;;4.80;1.88;;;23.00;31.20;;;;;;5156325;27;20110;-60
2022/04/21 12:28:16;;;;;;;10.30;1.90;;;23.20;30.90;;;;;;5137556;27;20064;-61
2022/04/21 12:30:42;;;;;;;15.77;1.95;;;23.00;31.10;;;;;;5138319;27;20422;-60
2022/04/21 12:33:09;;;;;;;17.42;2.15;;;22.90;30.60;;;;;;5157211;27;20115;-60
2022/04/21 12:35:45;;;;;;;13.18;1.85;;;22.70;30.90;;;;;;5156679;27;20026;-62
2022/04/21 12:41:01;;;;;;;10.45;1.50;;;22.60;31.60;;;;;;5141834;27;20022;-62
2022/04/21 12:43:28;;;;;;;8.85;2.08;;;22.70;31.50;;;;;;5156994;27;20019;-62
2022/04/21 12:45:55;;;;;;;8.57;1.88;;;22.60;31.30;;;;;;5138251;27;20010;-63
2022/04/21 12:48:27;;;;;;;4.25;1.20;;;22.70;31.40;;;;;;5120222;27;20510;-60
2022/04/21 12:50:54;;;;;;;13.57;1.40;;;22.70;31.40;;;;;;5156885;27;20166;-62
2022/04/21 12:53:30;;;;;;;8.10;1.73;;;22.70;31.50;;;;;;5156479;27;20075;-62
2022/04/21 12:56:17;;;;;;;9.18;1.50;;;22.70;31.50;;;;;;5156495;27;20010;-62
2022/04/21 12:58:44;;;;;;;5.82;1.50;;;22.70;31.60;;;;;;5124131;27;20076;-63
2022/04/21 13:01:12;;;;;;;10.20;1.35;;;22.70;31.50;;;;;;5120397;27;20018;-63
2022/04/21 13:03:40;;;;;;;9.85;1.58;;;22.70;31.60;;;;;;5137420;27;20034;-62
2022/04/21 13:06:05;;;;;;;5.43;1.20;;;22.70;31.60;;;;;;5137478;27;20178;-62
2022/04/21 13:08:31;;;;;;;6.50;1.23;;;22.70;31.10;;;;;;5137260;27;20027;-62
2022/04/21 13:10:57;;;;;;;6.40;1.38;;;22.70;31.50;;;;;;5156303;27;20018;-62
2022/04/21 13:13:23;;;;;;;5.68;1.08;;;22.70;31.40;;;;;;5155672;27;20019;-63
2022/04/21 13:15:50;;;;;;;10.60;1.55;;;22.60;31.10;;;;;;5155473;27;20018;-62
2022/04/21 13:18:15;;;;;;;7.63;1.23;;;22.60;31.80;;;;;;5136329;27;20017;-63
2022/04/21 13:23:29;;;;;;;2.25;0.82;;;22.70;32.00;;;;;;5154851;27;20041;-63
2022/04/21 13:25:55;;;;;;;7.40;1.40;;;22.60;31.70;;;;;;5153838;27;20010;-61
2022/04/21 13:28:21;;;;;;;6.03;1.10;;;22.60;32.00;;;;;;5136466;27;20499;-61
2022/04/21 13:33:21;;;;;;;4.05;1.00;;;22.60;32.10;;;;;;5155093;27;20030;-61
2022/04/21 13:33:33;;;;;;;6.10;1.50;;;22.70;32.10;;;;;;5157199;27;20030;-63
2022/04/21 13:36:00;;;;;;;7.28;1.20;;;22.70;32.10;;;;;;5122515;27;20019;-63
2022/04/21 13:38:25;;;;;;;1.63;0.73;;;22.70;31.60;;;;;;5156428;27;20141;-63
2022/04/21 13:40:51;;;;;;;5.40;1.20;;;22.70;32.00;;;;;;5138036;27;20023;-62